Time;durP1;ratioP1;P1;durP2;ratioP2;P2;SDS_P1;SDS_P2;PMS_P1;PMS_P2;Temp;Humidity;BMP_temperature;BMP_pressure;BME280_temperature;BME280_humidity;BME280_pressure;Samples;Min_cycle;Max_cycle;Signal;HPM_P1;HPM_P2
2023/06/23 00:01:00;;;;;;;;;;;17.10;99.90;;;;;;7305385;19;9841;-72
2023/06/23 00:03:30;;;;;;;;;;;17.10;99.90;;;;;;7306774;19;9494;-72
2023/06/23 00:06:00;;;;;;;;;;;17.00;99.90;;;;;;7306011;19;9233;-73
2023/06/23 00:08:29;;;;;;;;;;;17.10;99.90;;;;;;7309456;19;9273;-72
2023/06/23 00:11:01;;;;;;;;;;;17.10;99.90;;;;;;7307080;19;9537;-72
2023/06/23 00:13:34;;;;;;;;;;;17.10;99.90;;;;;;7305268;19;9433;-72
2023/06/23 00:16:04;;;;;;;;;;;17.00;99.90;;;;;;7304846;19;9411;-72
2023/06/23 00:18:36;;;;;;;;;;;17.00;99.90;;;;;;7307681;19;9259;-72
2023/06/23 00:21:05;;;;;;;;;;;16.90;99.90;;;;;;7303720;19;9265;-72
2023/06/23 00:23:35;;;;;;;;;;;16.90;99.90;;;;;;7306937;19;9249;-72
2023/06/23 00:26:07;;;;;;;;;;;16.90;99.90;;;;;;7301131;19;9140;-72
2023/06/23 00:28:37;;;;;;;;;;;16.90;99.90;;;;;;7304161;19;9303;-71
2023/06/23 00:31:06;;;;;;;;;;;16.90;99.90;;;;;;7301924;19;11519;-72
2023/06/23 00:33:35;;;;;;;;;;;16.80;99.90;;;;;;7304533;19;9351;-72
2023/06/23 00:36:04;;;;;;;;;;;16.80;99.90;;;;;;7304722;19;9228;-72
2023/06/23 00:38:34;;;;;;;;;;;16.80;99.90;;;;;;7303576;19;10165;-72
2023/06/23 00:41:06;;;;;;;;;;;16.90;99.90;;;;;;7304261;19;9770;-72
2023/06/23 00:43:35;;;;;;;;;;;16.90;99.90;;;;;;7304120;19;9530;-72
2023/06/23 00:46:13;;;;;;;;;;;16.80;99.90;;;;;;7302070;19;9486;-72
2023/06/23 00:48:43;;;;;;;;;;;16.70;99.90;;;;;;7302604;19;9275;-72
2023/06/23 00:51:12;;;;;;;;;;;16.70;99.90;;;;;;7307210;19;9253;-71
2023/06/23 00:53:45;;;;;;;;;;;16.60;99.90;;;;;;7305529;19;9562;-72
2023/06/23 00:56:18;;;;;;;;;;;16.50;99.90;;;;;;7301976;19;9503;-72
2023/06/23 00:58:48;;;;;;;;;;;16.40;99.90;;;;;;7301861;19;9261;-72
2023/06/23 01:01:18;;;;;;;;;;;16.40;99.90;;;;;;7302972;19;8996;-72
2023/06/23 01:03:48;;;;;;;;;;;16.40;99.90;;;;;;7300489;19;9550;-72
2023/06/23 01:06:29;;;;;;;;;;;16.40;99.90;;;;;;7300962;19;9233;-72
2023/06/23 01:09:07;;;;;;;;;;;16.40;99.90;;;;;;7304363;19;9205;-72
2023/06/23 01:11:47;;;;;;;;;;;16.40;99.90;;;;;;7301917;19;9350;-72
2023/06/23 01:14:26;;;;;;;;;;;16.40;99.90;;;;;;7302995;19;9299;-72
2023/06/23 01:17:04;;;;;;;;;;;16.50;99.90;;;;;;7303393;19;8996;-72
2023/06/23 01:19:54;;;;;;;;;;;16.50;99.90;;;;;;7303565;19;9371;-73
2023/06/23 01:22:33;;;;;;;;;;;16.50;99.90;;;;;;7303163;19;8945;-71
2023/06/23 01:25:14;;;;;;;;;;;16.50;99.90;;;;;;7303284;19;9261;-72
2023/06/23 01:28:01;;;;;;;;;;;16.50;99.90;;;;;;7301199;19;9182;-72
2023/06/23 01:30:35;;;;;;;;;;;16.50;99.90;;;;;;7304472;19;9391;-72
2023/06/23 01:33:12;;;;;;;;;;;16.50;99.90;;;;;;7299153;19;9726;-73
2023/06/23 01:35:47;;;;;;;;;;;16.50;99.90;;;;;;7304305;19;10750;-72
2023/06/23 01:38:27;;;;;;;;;;;16.50;99.90;;;;;;7308716;19;9241;-72
2023/06/23 01:41:01;;;;;;;;;;;16.50;99.90;;;;;;7309408;19;9398;-72
2023/06/23 01:43:32;;;;;;;;;;;16.40;99.90;;;;;;7308726;19;9184;-72
2023/06/23 01:46:09;;;;;;;;;;;16.40;99.90;;;;;;7309948;19;9461;-72
2023/06/23 01:48:42;;;;;;;;;;;16.40;99.90;;;;;;7309742;19;9419;-72
2023/06/23 01:51:14;;;;;;;;;;;16.50;99.90;;;;;;7311784;19;9308;-72
2023/06/23 01:53:45;;;;;;;;;;;16.50;99.90;;;;;;7310221;19;8948;-72
2023/06/23 01:56:16;;;;;;;;;;;16.50;99.90;;;;;;7308442;19;9249;-72
2023/06/23 01:58:48;;;;;;;;;;;16.50;99.90;;;;;;7308481;19;9220;-72
2023/06/23 02:01:22;;;;;;;;;;;16.40;99.90;;;;;;7306703;19;8944;-72
2023/06/23 02:03:53;;;;;;;;;;;16.40;99.90;;;;;;7308551;19;9165;-72
2023/06/23 02:06:26;;;;;;;;;;;16.40;99.90;;;;;;7309775;19;9280;-72
2023/06/23 02:08:56;;;;;;;;;;;16.40;99.90;;;;;;7307847;19;8944;-72
2023/06/23 02:11:28;;;;;;;;;;;16.40;99.90;;;;;;7309751;19;9352;-72
2023/06/23 02:13:59;;;;;;;;;;;16.40;99.90;;;;;;7310998;19;9293;-72
2023/06/23 02:16:35;;;;;;;;;;;16.40;99.90;;;;;;7307746;19;8945;-72
2023/06/23 02:19:05;;;;;;;;;;;16.40;99.90;;;;;;7308102;19;9540;-72
2023/06/23 02:21:37;;;;;;;;;;;16.40;99.90;;;;;;7304576;19;9232;-72
2023/06/23 02:24:10;;;;;;;;;;;16.30;99.90;;;;;;7310354;19;9491;-72
2023/06/23 02:26:41;;;;;;;;;;;16.30;99.90;;;;;;7306261;19;9395;-72
2023/06/23 02:29:12;;;;;;;;;;;16.30;99.90;;;;;;7319310;19;9485;-72
2023/06/23 02:31:44;;;;;;;;;;;16.30;99.90;;;;;;7309801;19;10085;-72
2023/06/23 02:34:13;;;;;;;;;;;16.30;99.90;;;;;;7309646;19;9462;-72
2023/06/23 02:36:48;;;;;;;;;;;16.30;99.90;;;;;;7310346;19;9273;-72
2023/06/23 02:39:21;;;;;;;;;;;16.40;99.90;;;;;;7308720;19;9572;-72
2023/06/23 02:41:57;;;;;;;;;;;16.40;99.90;;;;;;7309421;19;8996;-72
2023/06/23 02:44:37;;;;;;;;;;;16.40;99.90;;;;;;7308606;19;9005;-72
2023/06/23 02:47:19;;;;;;;;;;;16.40;99.90;;;;;;7307260;19;9383;-72
2023/06/23 02:49:51;;;;;;;;;;;16.50;99.90;;;;;;7307369;19;9404;-72
2023/06/23 02:52:23;;;;;;;;;;;16.50;99.90;;;;;;7312583;19;9233;-72
2023/06/23 02:54:58;;;;;;;;;;;16.50;99.90;;;;;;7309806;19;9431;-72
2023/06/23 02:57:31;;;;;;;;;;;16.60;99.90;;;;;;7310013;19;8945;-72
2023/06/23 03:00:05;;;;;;;;;;;16.60;99.90;;;;;;7304795;19;9000;-72
2023/06/23 03:02:38;;;;;;;;;;;16.60;99.90;;;;;;7308661;19;9249;-72
2023/06/23 03:05:09;;;;;;;;;;;16.50;99.90;;;;;;7304167;19;10262;-71
2023/06/23 03:07:38;;;;;;;;;;;16.50;99.90;;;;;;7308380;19;10070;-72
2023/06/23 03:10:09;;;;;;;;;;;16.50;99.90;;;;;;7304203;19;11572;-72
2023/06/23 03:12:38;;;;;;;;;;;16.50;99.90;;;;;;7306615;19;9657;-72
2023/06/23 03:15:08;;;;;;;;;;;16.50;99.90;;;;;;7307311;19;9563;-72
2023/06/23 03:17:43;;;;;;;;;;;16.50;99.90;;;;;;7307878;19;9391;-72
2023/06/23 03:20:18;;;;;;;;;;;16.60;99.90;;;;;;7307165;19;9475;-72
2023/06/23 03:22:54;;;;;;;;;;;16.60;99.90;;;;;;7305524;19;9221;-72
2023/06/23 03:25:28;;;;;;;;;;;16.60;99.90;;;;;;7306989;19;8944;-72
2023/06/23 03:28:01;;;;;;;;;;;16.60;99.90;;;;;;7306553;19;9254;-72
2023/06/23 03:30:39;;;;;;;;;;;16.70;99.90;;;;;;7310290;19;9274;-72
2023/06/23 03:33:17;;;;;;;;;;;16.70;99.90;;;;;;7307723;19;9267;-72
2023/06/23 03:35:49;;;;;;;;;;;16.60;99.90;;;;;;7304406;19;9244;-72
2023/06/23 03:38:21;;;;;;;;;;;16.60;99.90;;;;;;7304276;19;9241;-72
2023/06/23 03:41:00;;;;;;;;;;;16.70;99.90;;;;;;7304665;19;9526;-72
2023/06/23 03:43:35;;;;;;;;;;;16.70;99.90;;;;;;7304850;19;8944;-72
2023/06/23 03:46:10;;;;;;;;;;;16.70;99.90;;;;;;7305314;19;10332;-72
2023/06/23 03:48:45;;;;;;;;;;;16.70;99.90;;;;;;7303239;19;10206;-72
2023/06/23 03:51:19;;;;;;;;;;;16.70;99.90;;;;;;7308787;19;9237;-72
2023/06/23 03:53:51;;;;;;;;;;;16.70;99.90;;;;;;7305268;19;9285;-72
2023/06/23 03:56:23;;;;;;;;;;;16.70;99.90;;;;;;7305261;19;9278;-72
2023/06/23 03:58:53;;;;;;;;;;;16.70;99.90;;;;;;7303240;19;9260;-72
2023/06/23 04:01:25;;;;;;;;;;;16.80;99.90;;;;;;7306119;19;11365;-72
2023/06/23 04:04:00;;;;;;;;;;;16.80;99.90;;;;;;7302371;19;9360;-72
2023/06/23 04:06:33;;;;;;;;;;;16.80;99.90;;;;;;7303597;19;9274;-72
2023/06/23 04:09:07;;;;;;;;;;;16.80;99.90;;;;;;7303446;19;9257;-72
2023/06/23 04:11:39;;;;;;;;;;;16.90;99.90;;;;;;7303445;19;9020;-71
2023/06/23 04:14:11;;;;;;;;;;;16.90;99.90;;;;;;7306655;19;9305;-72
2023/06/23 04:16:43;;;;;;;;;;;16.80;99.90;;;;;;7304407;19;9486;-72
2023/06/23 04:19:18;;;;;;;;;;;16.90;99.90;;;;;;7304933;19;9361;-72
2023/06/23 04:21:49;;;;;;;;;;;16.90;99.90;;;;;;7302685;19;9124;-72
2023/06/23 04:24:21;;;;;;;;;;;16.90;99.90;;;;;;7304886;19;9001;-72
2023/06/23 04:26:55;;;;;;;;;;;17.00;99.90;;;;;;7302519;19;9176;-72
2023/06/23 04:29:29;;;;;;;;;;;16.90;99.90;;;;;;7304916;19;9449;-72
2023/06/23 04:32:00;;;;;;;;;;;17.00;99.90;;;;;;7304666;19;9233;-72
2023/06/23 04:34:33;;;;;;;;;;;16.90;99.90;;;;;;7304881;19;9456;-72
2023/06/23 04:37:11;;;;;;;;;;;17.00;99.90;;;;;;7304736;19;9253;-72
2023/06/23 04:39:49;;;;;;;;;;;17.00;99.90;;;;;;7301110;19;9290;-72
2023/06/23 04:42:27;;;;;;;;;;;16.90;99.90;;;;;;7303580;19;10224;-72
2023/06/23 04:45:01;;;;;;;;;;;17.00;99.90;;;;;;7303507;19;10204;-72
2023/06/23 04:47:36;;;;;;;;;;;17.10;99.90;;;;;;7305537;19;9290;-72
2023/06/23 04:50:15;;;;;;;;;;;17.10;99.90;;;;;;7304825;19;10202;-72
2023/06/23 04:52:51;;;;;;;;;;;17.10;99.90;;;;;;7304727;19;9258;-72
2023/06/23 04:55:29;;;;;;;;;;;17.10;99.90;;;;;;7301579;19;9541;-72
2023/06/23 04:58:05;;;;;;;;;;;17.20;99.90;;;;;;7301888;19;9305;-73
2023/06/23 05:00:36;;;;;;;;;;;17.20;99.90;;;;;;7298724;19;9320;-72
2023/06/23 05:03:08;;;;;;;;;;;17.20;99.90;;;;;;7300741;19;11368;-72
2023/06/23 05:05:41;;;;;;;;;;;17.20;99.90;;;;;;7300147;19;10803;-72
2023/06/23 05:08:13;;;;;;;;;;;17.20;99.90;;;;;;7307486;19;9301;-73
2023/06/23 05:10:47;;;;;;;;;;;17.30;99.90;;;;;;7304768;19;9494;-72
2023/06/23 05:13:20;;;;;;;;;;;17.30;99.90;;;;;;7311826;19;9328;-71
2023/06/23 05:15:52;;;;;;;;;;;17.30;99.90;;;;;;7311339;19;9273;-72
2023/06/23 05:18:24;;;;;;;;;;;17.30;99.90;;;;;;7313468;19;9248;-72
2023/06/23 05:21:00;;;;;;;;;;;17.40;99.90;;;;;;7309677;19;9551;-72
2023/06/23 05:23:31;;;;;;;;;;;17.40;99.90;;;;;;7312510;19;9931;-72
2023/06/23 05:26:01;;;;;;;;;;;17.40;99.90;;;;;;7311914;19;11887;-72
2023/06/23 05:28:35;;;;;;;;;;;17.50;99.90;;;;;;7311296;19;8944;-72
2023/06/23 05:31:07;;;;;;;;;;;17.50;99.90;;;;;;7311183;19;9580;-72
2023/06/23 05:33:42;;;;;;;;;;;17.60;99.90;;;;;;7315285;19;9500;-72
2023/06/23 05:36:15;;;;;;;;;;;17.70;99.90;;;;;;7311019;19;9255;-72
2023/06/23 05:38:48;;;;;;;;;;;17.70;99.90;;;;;;7310994;19;10670;-72
2023/06/23 05:41:17;;;;;;;;;;;17.80;99.90;;;;;;7311251;19;9556;-72
2023/06/23 05:43:46;;;;;;;;;;;17.80;99.90;;;;;;7313789;19;8945;-72
2023/06/23 05:46:18;;;;;;;;;;;17.90;99.90;;;;;;7311028;19;9369;-72
2023/06/23 05:48:54;;;;;;;;;;;18.00;99.90;;;;;;7310647;19;9352;-73
2023/06/23 05:51:30;;;;;;;;;;;18.00;99.90;;;;;;7315422;19;9264;-72
2023/06/23 05:54:03;;;;;;;;;;;18.00;99.90;;;;;;7307070;19;11212;-72
2023/06/23 05:56:38;;;;;;;;;;;18.10;99.90;;;;;;7311676;19;9308;-72
2023/06/23 05:59:17;;;;;;;;;;;18.10;99.90;;;;;;7309922;19;9273;-73
2023/06/23 06:01:53;;;;;;;;;;;18.20;99.90;;;;;;7310434;19;9367;-73
2023/06/23 06:04:28;;;;;;;;;;;18.20;99.90;;;;;;7307363;19;9261;-72
2023/06/23 06:07:03;;;;;;;;;;;18.20;99.90;;;;;;7270468;19;12993;-72
2023/06/23 06:09:35;;;;;;;;;;;18.20;99.90;;;;;;7306045;19;10170;-81
2023/06/23 06:12:06;;;;;;;;;;;18.20;99.90;;;;;;7304868;19;9257;-72
2023/06/23 06:14:38;;;;;;;;;;;18.20;99.90;;;;;;7305980;19;9260;-73
2023/06/23 06:17:10;;;;;;;;;;;18.20;99.90;;;;;;7309322;19;9336;-71
2023/06/23 06:19:43;;;;;;;;;;;18.30;99.90;;;;;;7303336;19;9246;-73
2023/06/23 06:22:18;;;;;;;;;;;18.30;99.90;;;;;;7309102;19;11957;-72
2023/06/23 06:24:49;;;;;;;;;;;18.30;99.90;;;;;;7307977;19;9332;-72
2023/06/23 06:27:20;;;;;;;;;;;18.30;99.90;;;;;;7303114;19;9542;-72
2023/06/23 06:29:51;;;;;;;;;;;18.30;99.90;;;;;;7308202;19;9352;-72
2023/06/23 06:32:22;;;;;;;;;;;18.30;99.90;;;;;;7310803;19;9468;-72
2023/06/23 06:34:54;;;;;;;;;;;18.30;99.90;;;;;;7307865;19;9286;-72
2023/06/23 06:37:28;;;;;;;;;;;18.30;99.90;;;;;;7310401;19;9291;-72
2023/06/23 06:40:00;;;;;;;;;;;18.30;99.90;;;;;;7308505;19;9421;-72
2023/06/23 06:42:29;;;;;;;;;;;18.40;99.90;;;;;;7308331;19;10705;-72
2023/06/23 06:44:59;;;;;;;;;;;18.40;99.90;;;;;;7309048;19;9517;-72
2023/06/23 06:47:30;;;;;;;;;;;18.40;99.90;;;;;;7309740;19;9249;-72
2023/06/23 06:50:02;;;;;;;;;;;18.40;99.90;;;;;;7311624;19;9003;-72
2023/06/23 06:52:34;;;;;;;;;;;18.40;99.90;;;;;;7309701;19;9556;-72
2023/06/23 06:55:03;;;;;;;;;;;18.30;99.90;;;;;;7310181;19;9435;-72
2023/06/23 06:57:35;;;;;;;;;;;18.40;99.90;;;;;;7308680;19;11011;-72
2023/06/23 07:00:07;;;;;;;;;;;18.40;99.90;;;;;;7306825;19;9285;-72
2023/06/23 07:02:37;;;;;;;;;;;18.40;99.90;;;;;;7307436;19;9237;-72
2023/06/23 07:05:08;;;;;;;;;;;18.50;99.90;;;;;;7305227;19;9293;-72
2023/06/23 07:07:40;;;;;;;;;;;18.80;99.90;;;;;;7305276;19;10532;-72
2023/06/23 07:10:10;;;;;;;;;;;19.10;99.90;;;;;;7306675;19;9264;-72
2023/06/23 07:12:39;;;;;;;;;;;19.60;99.90;;;;;;7308549;19;9372;-72
2023/06/23 07:15:10;;;;;;;;;;;20.10;99.90;;;;;;7306914;19;9170;-72
2023/06/23 07:17:39;;;;;;;;;;;20.40;99.90;;;;;;7308982;19;9363;-72
2023/06/23 07:20:09;;;;;;;;;;;20.80;99.90;;;;;;7305657;19;9546;-72
2023/06/23 07:22:41;;;;;;;;;;;21.10;99.90;;;;;;7309339;19;9243;-72
2023/06/23 07:25:11;;;;;;;;;;;21.50;99.90;;;;;;7305518;19;11835;-72
2023/06/23 07:27:40;;;;;;;;;;;21.70;99.90;;;;;;7305317;19;10566;-72
2023/06/23 07:30:11;;;;;;;;;;;21.80;99.90;;;;;;7305091;19;9591;-72
2023/06/23 07:32:40;;;;;;;;;;;21.90;99.90;;;;;;7306249;19;10511;-72
2023/06/23 07:35:09;;;;;;;;;;;22.00;99.90;;;;;;7304465;19;9489;-72
2023/06/23 07:37:41;;;;;;;;;;;22.20;99.90;;;;;;7306358;19;9494;-73
2023/06/23 07:40:11;;;;;;;;;;;22.00;99.90;;;;;;7304682;19;9248;-73
2023/06/23 07:42:40;;;;;;;;;;;21.90;99.90;;;;;;7305388;19;9440;-72
2023/06/23 07:45:11;;;;;;;;;;;21.80;99.90;;;;;;7307589;19;9234;-72
2023/06/23 07:47:40;;;;;;;;;;;22.00;99.90;;;;;;7307301;19;9348;-72
2023/06/23 07:50:10;;;;;;;;;;;22.10;99.90;;;;;;7310653;19;9449;-72
2023/06/23 07:52:42;;;;;;;;;;;22.30;99.90;;;;;;7305502;19;10495;-73
2023/06/23 07:55:12;;;;;;;;;;;22.30;99.90;;;;;;7308108;19;9515;-72
2023/06/23 07:57:41;;;;;;;;;;;22.40;99.90;;;;;;7306800;19;9000;-73
2023/06/23 08:00:12;;;;;;;;;;;22.60;99.90;;;;;;7304368;19;10190;-73
2023/06/23 08:02:41;;;;;;;;;;;22.70;99.90;;;;;;7306495;19;9258;-72
2023/06/23 08:05:11;;;;;;;;;;;22.70;99.90;;;;;;7305826;19;9638;-73
2023/06/23 08:07:44;;;;;;;;;;;22.50;99.90;;;;;;7307012;19;9490;-73
2023/06/23 08:10:13;;;;;;;;;;;22.60;99.90;;;;;;7307837;19;10169;-73
2023/06/23 08:12:42;;;;;;;;;;;22.30;99.90;;;;;;7308029;19;9292;-72
2023/06/23 08:15:12;;;;;;;;;;;22.50;99.90;;;;;;7306225;19;9367;-72
2023/06/23 08:17:42;;;;;;;;;;;22.60;99.90;;;;;;7305957;19;9628;-73
2023/06/23 08:20:12;;;;;;;;;;;22.70;99.90;;;;;;7307121;19;9288;-73
2023/06/23 08:22:44;;;;;;;;;;;22.90;99.90;;;;;;7310371;19;9619;-72
2023/06/23 08:25:14;;;;;;;;;;;22.90;99.90;;;;;;7306620;19;9308;-73
2023/06/23 08:27:43;;;;;;;;;;;22.70;99.10;;;;;;7306735;19;10098;-73
2023/06/23 08:30:14;;;;;;;;;;;22.70;99.10;;;;;;7305947;19;10161;-72
2023/06/23 08:32:43;;;;;;;;;;;22.80;99.20;;;;;;7304770;19;10118;-73
2023/06/23 08:35:12;;;;;;;;;;;23.10;96.90;;;;;;7305040;19;9276;-73
2023/06/23 08:37:44;;;;;;;;;;;23.40;97.10;;;;;;7308049;19;10050;-73
2023/06/23 08:40:14;;;;;;;;;;;23.60;97.00;;;;;;7303971;19;9524;-73
2023/06/23 08:42:43;;;;;;;;;;;23.50;93.10;;;;;;7308019;19;9570;-72
2023/06/23 08:45:14;;;;;;;;;;;23.80;93.20;;;;;;7301817;19;10096;-72
2023/06/23 08:47:51;;;;;;;;;;;23.90;93.00;;;;;;7305578;19;9297;-73
2023/06/23 08:50:21;;;;;;;;;;;24.10;92.20;;;;;;7308728;19;9239;-72
2023/06/23 08:52:53;;;;;;;;;;;24.10;90.90;;;;;;7305834;19;9278;-73
2023/06/23 08:55:23;;;;;;;;;;;24.20;92.00;;;;;;7305936;19;9269;-73
2023/06/23 08:57:52;;;;;;;;;;;24.20;90.60;;;;;;7305021;19;9292;-73
2023/06/23 09:00:23;;;;;;;;;;;24.10;90.80;;;;;;7303496;19;9262;-73
2023/06/23 09:02:52;;;;;;;;;;;24.10;90.40;;;;;;7302097;19;11511;-74
2023/06/23 09:05:21;;;;;;;;;;;24.00;86.90;;;;;;7304090;19;9458;-73
2023/06/23 09:07:54;;;;;;;;;;;24.00;88.60;;;;;;7304395;19;9467;-74
2023/06/23 09:10:24;;;;;;;;;;;23.90;88.90;;;;;;7301427;19;10952;-73
2023/06/23 09:13:19;;;;;;;;;;;23.90;90.50;;;;;;7304997;19;9169;-74
2023/06/23 09:15:50;;;;;;;;;;;23.90;88.90;;;;;;7304700;19;9709;-73
2023/06/23 09:18:20;;;;;;;;;;;23.90;85.50;;;;;;7304075;19;9241;-73
2023/06/23 09:20:52;;;;;;;;;;;23.90;83.90;;;;;;7301335;19;9450;-73
2023/06/23 09:23:25;;;;;;;;;;;23.80;85.30;;;;;;7305618;19;9237;-73
2023/06/23 09:25:56;;;;;;;;;;;23.90;86.20;;;;;;7303698;19;9160;-74
2023/06/23 09:28:28;;;;;;;;;;;23.90;85.10;;;;;;7303206;19;9265;-72
2023/06/23 09:30:59;;;;;;;;;;;23.90;83.30;;;;;;7304287;19;10268;-73
2023/06/23 09:33:29;;;;;;;;;;;24.00;83.90;;;;;;7304374;19;9312;-73
2023/06/23 09:35:59;;;;;;;;;;;23.70;82.50;;;;;;7300629;19;10299;-73
2023/06/23 09:38:31;;;;;;;;;;;23.80;84.90;;;;;;7305779;19;9279;-73
2023/06/23 09:41:09;;;;;;;;;;;24.00;82.80;;;;;;7298740;19;9290;-73
2023/06/23 09:43:42;;;;;;;;;;;24.10;83.50;;;;;;7304540;19;9249;-73
2023/06/23 09:46:13;;;;;;;;;;;24.20;80.20;;;;;;7302949;19;9189;-73
2023/06/23 09:48:43;;;;;;;;;;;24.30;80.80;;;;;;7305635;19;11361;-73
2023/06/23 09:51:12;;;;;;;;;;;24.40;80.20;;;;;;7303382;19;10477;-73
2023/06/23 09:53:46;;;;;;;;;;;24.30;75.50;;;;;;7304632;19;9260;-73
2023/06/23 09:56:20;;;;;;;;;;;24.20;77.50;;;;;;7302590;19;9247;-73
2023/06/23 09:58:51;;;;;;;;;;;24.20;77.40;;;;;;7311589;19;10460;-73
2023/06/23 10:01:23;;;;;;;;;;;24.30;75.10;;;;;;7307991;19;9138;-73
2023/06/23 10:03:53;;;;;;;;;;;24.40;76.60;;;;;;7310856;19;12388;-73
2023/06/23 10:06:28;;;;;;;;;;;24.40;76.70;;;;;;7304018;19;11193;-73
2023/06/23 10:09:02;;;;;;;;;;;24.50;73.00;;;;;;7311325;19;9385;-73
2023/06/23 10:11:33;;;;;;;;;;;24.50;74.20;;;;;;7307974;19;10206;-73
2023/06/23 10:14:05;;;;;;;;;;;24.50;74.20;;;;;;7310386;19;9492;-73
2023/06/23 10:16:35;;;;;;;;;;;24.50;75.30;;;;;;7309047;19;10503;-74
2023/06/23 10:19:05;;;;;;;;;;;24.80;76.00;;;;;;7311610;19;9248;-73
2023/06/23 10:21:35;;;;;;;;;;;24.90;75.10;;;;;;7309729;19;10093;-73
2023/06/23 10:24:11;;;;;;;;;;;24.90;73.70;;;;;;7311895;19;9483;-74
2023/06/23 10:26:41;;;;;;;;;;;25.00;74.20;;;;;;7311701;19;9444;-73
2023/06/23 10:29:16;;;;;;;;;;;25.00;73.40;;;;;;7311153;19;9546;-73
2023/06/23 10:31:48;;;;;;;;;;;24.70;71.60;;;;;;7308099;19;9298;-77
2023/06/23 10:34:18;;;;;;;;;;;24.70;71.70;;;;;;7306673;19;9523;-73
2023/06/23 10:36:55;;;;;;;;;;;24.90;73.40;;;;;;7309638;19;8988;-73
2023/06/23 10:39:33;;;;;;;;;;;25.10;74.20;;;;;;7306354;19;9262;-75
2023/06/23 10:42:03;;;;;;;;;;;25.10;73.70;;;;;;7309883;19;9249;-73
2023/06/23 10:44:33;;;;;;;;;;;25.20;71.50;;;;;;7304661;19;9862;-74
2023/06/23 10:47:03;;;;;;;;;;;25.10;70.90;;;;;;7306981;19;11203;-73
2023/06/23 10:49:33;;;;;;;;;;;25.10;71.50;;;;;;7308164;19;9407;-73
2023/06/23 10:52:03;;;;;;;;;;;25.30;72.40;;;;;;7313780;19;9399;-73
2023/06/23 10:54:35;;;;;;;;;;;25.30;73.00;;;;;;7307781;19;9483;-73
2023/06/23 10:57:12;;;;;;;;;;;25.20;70.10;;;;;;7309616;19;9945;-73
2023/06/23 10:59:45;;;;;;;;;;;25.20;71.00;;;;;;7307570;19;9415;-73
2023/06/23 11:02:23;;;;;;;;;;;25.40;72.30;;;;;;7308119;19;9541;-73
2023/06/23 11:04:58;;;;;;;;;;;25.30;70.60;;;;;;7305184;19;9478;-73
2023/06/23 11:07:27;;;;;;;;;;;25.20;70.70;;;;;;7304127;19;9462;-73
2023/06/23 11:10:10;;;;;;;;;;;25.00;71.50;;;;;;7303192;19;9280;-73
2023/06/23 11:12:45;;;;;;;;;;;24.90;71.80;;;;;;7300553;19;9458;-73
2023/06/23 11:15:20;;;;;;;;;;;24.70;72.20;;;;;;7299937;19;9278;-73
2023/06/23 11:17:50;;;;;;;;;;;24.60;73.00;;;;;;7299192;19;9418;-74
2023/06/23 11:20:35;;;;;;;;;;;24.60;74.00;;;;;;7304860;19;9464;-73
2023/06/23 11:23:07;;;;;;;;;;;24.80;73.20;;;;;;7302767;19;9256;-75
2023/06/23 11:25:43;;;;;;;;;;;25.00;73.30;;;;;;7301124;19;9381;-73
2023/06/23 11:28:33;;;;;;;;;;;25.10;72.70;;;;;;7305823;19;9416;-74
2023/06/23 11:31:13;;;;;;;;;;;25.10;73.10;;;;;;7304542;19;9273;-74
2023/06/23 11:33:43;;;;;;;;;;;25.10;73.10;;;;;;7305875;19;9221;-73
2023/06/23 11:36:15;;;;;;;;;;;25.30;73.40;;;;;;7306014;19;9238;-73
2023/06/23 11:38:46;;;;;;;;;;;25.30;72.80;;;;;;7304978;19;9298;-74
2023/06/23 11:41:27;;;;;;;;;;;25.30;72.30;;;;;;7305062;19;10154;-73
2023/06/23 11:44:00;;;;;;;;;;;25.50;72.20;;;;;;7305691;19;9210;-74
2023/06/23 11:46:33;;;;;;;;;;;25.30;72.90;;;;;;7305544;19;9257;-73
2023/06/23 11:49:10;;;;;;;;;;;25.20;74.60;;;;;;7304664;19;9516;-74
2023/06/23 11:51:40;;;;;;;;;;;25.20;74.90;;;;;;7310470;19;9225;-74
2023/06/23 11:54:10;;;;;;;;;;;25.40;75.20;;;;;;7300907;19;9269;-74
2023/06/23 11:56:43;;;;;;;;;;;25.10;75.70;;;;;;7305723;19;9258;-73
2023/06/23 11:59:14;;;;;;;;;;;25.30;75.80;;;;;;7302442;19;9240;-74
2023/06/23 12:01:44;;;;;;;;;;;25.60;75.50;;;;;;7301301;19;9380;-74
2023/06/23 12:04:13;;;;;;;;;;;25.40;75.30;;;;;;7303434;19;10158;-75
2023/06/23 12:06:43;;;;;;;;;;;25.30;74.30;;;;;;7305049;19;9365;-74
2023/06/23 12:09:12;;;;;;;;;;;25.30;75.70;;;;;;7306480;19;9501;-73
2023/06/23 12:11:43;;;;;;;;;;;25.30;74.00;;;;;;7252677;19;13868;-73
2023/06/23 12:14:12;;;;;;;;;;;25.30;75.30;;;;;;7303582;19;9214;-73
2023/06/23 12:16:42;;;;;;;;;;;25.40;76.70;;;;;;7304578;19;9322;-73
2023/06/23 12:19:11;;;;;;;;;;;25.30;75.70;;;;;;7306896;19;9514;-73
2023/06/23 12:21:41;;;;;;;;;;;25.30;76.60;;;;;;7301479;19;9110;-73
2023/06/23 12:24:13;;;;;;;;;;;25.20;75.90;;;;;;7305667;19;9552;-72
2023/06/23 12:26:45;;;;;;;;;;;25.20;76.10;;;;;;7300805;19;9255;-73
2023/06/23 12:29:14;;;;;;;;;;;25.30;75.70;;;;;;7307035;19;8995;-74
2023/06/23 12:31:43;;;;;;;;;;;25.10;76.10;;;;;;7303080;19;9396;-75
2023/06/23 12:34:14;;;;;;;;;;;25.40;76.20;;;;;;7307455;19;10420;-74
2023/06/23 12:36:48;;;;;;;;;;;25.40;74.90;;;;;;7300408;19;9262;-73
2023/06/23 12:39:18;;;;;;;;;;;25.30;74.40;;;;;;7302543;19;10122;-74
2023/06/23 12:41:51;;;;;;;;;;;25.20;74.70;;;;;;7302115;19;9378;-74
2023/06/23 12:44:23;;;;;;;;;;;25.00;74.90;;;;;;7303618;19;9809;-74
2023/06/23 12:46:52;;;;;;;;;;;25.00;73.30;;;;;;7304506;19;9264;-73
2023/06/23 12:49:21;;;;;;;;;;;25.00;74.30;;;;;;7306306;19;9249;-74
2023/06/23 12:51:51;;;;;;;;;;;25.10;74.90;;;;;;7307337;19;9392;-74
2023/06/23 12:54:20;;;;;;;;;;;25.30;75.80;;;;;;7302943;19;9458;-73
2023/06/23 12:56:51;;;;;;;;;;;25.00;70.70;;;;;;7301519;19;9107;-73
2023/06/23 12:59:20;;;;;;;;;;;25.10;72.10;;;;;;7302669;19;9480;-74
2023/06/23 13:01:50;;;;;;;;;;;25.20;72.60;;;;;;7299235;19;10122;-74
2023/06/23 13:04:20;;;;;;;;;;;25.30;68.80;;;;;;7299232;19;11297;-73
2023/06/23 13:06:50;;;;;;;;;;;25.30;67.90;;;;;;7303400;19;9406;-74
2023/06/23 13:09:19;;;;;;;;;;;25.50;65.50;;;;;;7300646;19;9259;-75
2023/06/23 13:11:51;;;;;;;;;;;25.50;66.20;;;;;;7302569;19;9077;-74
2023/06/23 13:14:20;;;;;;;;;;;25.60;62.40;;;;;;7302031;19;9225;-74
2023/06/23 13:16:49;;;;;;;;;;;25.60;61.00;;;;;;7300030;19;9271;-73
2023/06/23 13:19:18;;;;;;;;;;;25.70;61.90;;;;;;7303050;19;9475;-73
2023/06/23 13:21:49;;;;;;;;;;;25.70;61.80;;;;;;7298680;19;9277;-73
2023/06/23 13:24:18;;;;;;;;;;;25.70;59.30;;;;;;7304193;19;9287;-72
2023/06/23 13:26:48;;;;;;;;;;;25.80;59.00;;;;;;7297690;19;10352;-73
2023/06/23 13:29:19;;;;;;;;;;;25.70;56.20;;;;;;7303784;19;10127;-73
2023/06/23 13:31:48;;;;;;;;;;;25.70;58.80;;;;;;7296103;19;9560;-71
2023/06/23 13:34:17;;;;;;;;;;;25.70;64.00;;;;;;7308271;19;9501;-71
2023/06/23 13:36:47;;;;;;;;;;;25.40;58.70;;;;;;7293088;19;9295;-70
2023/06/23 13:39:16;;;;;;;;;;;25.60;63.40;;;;;;7301940;19;9257;-70
2023/06/23 13:41:45;;;;;;;;;;;25.70;60.70;;;;;;7304936;19;9288;-70
2023/06/23 13:44:17;;;;;;;;;;;25.40;60.60;;;;;;7309347;19;9497;-71
2023/06/23 13:46:49;;;;;;;;;;;25.10;60.80;;;;;;7308242;19;8944;-70
2023/06/23 13:49:18;;;;;;;;;;;24.90;58.80;;;;;;7313146;19;9375;-77
2023/06/23 13:51:47;;;;;;;;;;;24.90;60.60;;;;;;7311935;19;9229;-75
2023/06/23 13:54:17;;;;;;;;;;;24.80;61.70;;;;;;7314489;19;9346;-75
2023/06/23 13:56:46;;;;;;;;;;;24.90;61.80;;;;;;7310087;19;9118;-75
2023/06/23 13:59:16;;;;;;;;;;;24.90;61.40;;;;;;7311431;19;9201;-76
2023/06/23 14:01:50;;;;;;;;;;;24.90;61.30;;;;;;7311695;19;9221;-75
2023/06/23 14:04:22;;;;;;;;;;;25.00;63.00;;;;;;7310061;19;9249;-75
2023/06/23 14:06:51;;;;;;;;;;;25.00;63.90;;;;;;7313185;19;9634;-75
2023/06/23 14:09:21;;;;;;;;;;;25.10;64.30;;;;;;7311593;19;9468;-75
2023/06/23 14:11:50;;;;;;;;;;;25.00;63.90;;;;;;7314170;19;9289;-75
2023/06/23 14:14:19;;;;;;;;;;;24.80;59.20;;;;;;7310670;19;10110;-76
2023/06/23 14:16:51;;;;;;;;;;;24.80;56.80;;;;;;7316209;19;10727;-75
2023/06/23 14:19:21;;;;;;;;;;;24.90;61.60;;;;;;7311094;19;8944;-76
2023/06/23 14:21:50;;;;;;;;;;;24.70;57.50;;;;;;7312461;19;9390;-74
2023/06/23 14:24:20;;;;;;;;;;;24.80;60.50;;;;;;7311296;19;9237;-75
2023/06/23 14:26:49;;;;;;;;;;;24.70;58.10;;;;;;7314105;19;10831;-75
2023/06/23 14:29:18;;;;;;;;;;;24.70;60.30;;;;;;7309969;19;9776;-74
2023/06/23 14:31:47;;;;;;;;;;;24.60;56.90;;;;;;7310596;19;10761;-75
2023/06/23 14:34:19;;;;;;;;;;;24.60;58.00;;;;;;7307342;19;9249;-75
2023/06/23 14:36:49;;;;;;;;;;;24.40;55.40;;;;;;7306476;19;9349;-75
2023/06/23 14:39:19;;;;;;;;;;;24.50;58.00;;;;;;7311814;19;9229;-76
2023/06/23 14:41:48;;;;;;;;;;;24.20;54.30;;;;;;7307473;19;9450;-76
2023/06/23 14:44:17;;;;;;;;;;;24.40;58.90;;;;;;7308982;19;9205;-75
2023/06/23 14:46:46;;;;;;;;;;;24.40;57.80;;;;;;7310395;19;9264;-75
2023/06/23 14:49:15;;;;;;;;;;;24.60;57.60;;;;;;7311175;19;9266;-75
2023/06/23 14:51:47;;;;;;;;;;;24.60;58.60;;;;;;7313469;19;9259;-75
2023/06/23 14:54:16;;;;;;;;;;;24.60;55.30;;;;;;7311368;19;8997;-75
2023/06/23 14:56:46;;;;;;;;;;;24.60;58.20;;;;;;7307879;19;9265;-75